createdAt,value
2023-03-11T00:02:24.369Z,67.10
2023-03-11T00:05:19.870Z,67.10
2023-03-11T00:07:47.490Z,66.80
2023-03-11T00:10:24.780Z,66.60
2023-03-11T00:13:12.329Z,66.60
2023-03-11T00:15:58.303Z,66.70
2023-03-11T00:18:40.390Z,66.70
2023-03-11T00:21:25.593Z,66.60
2023-03-11T00:23:53.115Z,66.30
2023-03-11T00:26:30.818Z,66.30
2023-03-11T00:29:00.988Z,66.30
2023-03-11T00:31:36.189Z,66.30
2023-03-11T00:34:15.817Z,66.20
2023-03-11T00:36:45.836Z,66.00
2023-03-11T00:39:20.213Z,65.80
2023-03-11T00:41:48.738Z,65.60
2023-03-11T00:44:18.850Z,65.40
2023-03-11T00:46:52.462Z,65.30
2023-03-11T00:49:25.859Z,65.40
2023-03-11T00:51:55.878Z,65.50
2023-03-11T00:54:28.448Z,65.40
2023-03-11T00:57:04.828Z,65.70
2023-03-11T00:59:36.882Z,65.30
2023-03-11T01:02:18.325Z,65.40
2023-03-11T01:04:51.022Z,65.40
2023-03-11T01:07:31.614Z,65.30
2023-03-11T01:10:01.925Z,64.70
2023-03-11T01:12:41.169Z,64.70
2023-03-11T01:15:09.957Z,65.50
2023-03-11T01:17:37.514Z,64.50
2023-03-11T01:20:07.299Z,64.30
2023-03-11T01:22:40.587Z,64.40
2023-03-11T01:25:24.052Z,64.10
2023-03-11T01:30:44.323Z,63.70
2023-03-11T01:33:21.798Z,63.80
2023-03-11T01:36:13.183Z,64.30
2023-03-11T01:38:48.511Z,64.10
2023-03-11T01:41:21.602Z,64.00
2023-03-11T01:44:02.909Z,63.80
2023-03-11T01:47:10.785Z,63.70
2023-03-11T01:49:47.970Z,63.80
2023-03-11T01:52:32.014Z,63.80
2023-03-11T01:55:01.953Z,63.80
2023-03-11T01:57:32.262Z,63.80
2023-03-11T02:00:06.498Z,63.30
2023-03-11T02:02:49.740Z,63.50
2023-03-11T02:05:23.204Z,63.50
2023-03-11T02:08:03.756Z,63.20
2023-03-11T02:10:38.270Z,62.90
2023-03-11T02:13:11.875Z,62.70
2023-03-11T02:15:45.316Z,62.50
2023-03-11T02:18:22.365Z,62.30
2023-03-11T02:20:57.711Z,62.30
2023-03-11T02:23:38.528Z,62.40
2023-03-11T02:26:42.700Z,62.50
2023-03-11T02:29:17.991Z,62.50
2023-03-11T02:31:50.198Z,62.70
2023-03-11T02:34:25.498Z,62.60
2023-03-11T02:36:59.933Z,62.60
2023-03-11T02:39:47.291Z,63.20
2023-03-11T02:42:27.851Z,63.20
2023-03-11T02:45:14.323Z,62.80
2023-03-11T02:47:42.013Z,62.90
2023-03-11T02:50:20.227Z,62.60
2023-03-11T02:52:57.919Z,62.20
2023-03-11T02:55:29.156Z,62.40
2023-03-11T02:58:02.165Z,62.50
2023-03-11T03:00:45.930Z,62.20
2023-03-11T03:03:21.333Z,62.20
2023-03-11T03:05:52.179Z,62.20
2023-03-11T03:08:22.084Z,62.30
2023-03-11T03:10:50.666Z,61.90
2023-03-11T03:13:25.490Z,61.80
2023-03-11T03:16:00.648Z,61.30
2023-03-11T03:18:37.159Z,61.50
2023-03-11T03:21:14.071Z,61.20
2023-03-11T03:23:44.497Z,61.00
2023-03-11T03:26:19.949Z,61.00
2023-03-11T03:29:00.711Z,61.10
2023-03-11T03:31:31.695Z,61.10
2023-03-11T03:34:04.380Z,60.90
2023-03-11T03:36:31.960Z,60.90
2023-03-11T03:39:07.175Z,60.80
2023-03-11T03:41:51.073Z,60.80
2023-03-11T03:44:21.404Z,60.40
2023-03-11T03:46:55.209Z,60.60
2023-03-11T03:49:26.562Z,60.30
2023-03-11T03:51:57.451Z,60.60
2023-03-11T03:54:41.534Z,60.80
2023-03-11T03:57:17.772Z,61.20
2023-03-11T03:59:49.638Z,60.90
2023-03-11T04:02:17.274Z,60.70
2023-03-11T04:05:00.419Z,60.70
2023-03-11T04:07:39.993Z,60.80
2023-03-11T04:10:08.266Z,61.40
2023-03-11T04:12:53.984Z,61.40
2023-03-11T04:15:31.853Z,61.20
2023-03-11T04:18:08.846Z,60.80
2023-03-11T04:20:45.095Z,60.60
2023-03-11T04:23:19.481Z,60.60
2023-03-11T04:25:57.006Z,60.50
2023-03-11T04:28:30.691Z,60.40
2023-03-11T04:31:07.162Z,60.60
2023-03-11T04:33:40.695Z,60.70
2023-03-11T04:36:19.364Z,60.70
2023-03-11T04:38:49.407Z,60.60
2023-03-11T04:41:26.993Z,60.60
2023-03-11T04:44:09.388Z,60.80
2023-03-11T04:46:40.434Z,61.00
2023-03-11T04:49:13.832Z,61.20
2023-03-11T04:51:42.110Z,61.40
2023-03-11T04:54:10.701Z,61.40
2023-03-11T04:56:49.225Z,61.50
2023-03-11T04:59:19.439Z,61.50
2023-03-11T05:02:02.782Z,61.90
2023-03-11T05:04:38.147Z,61.90
2023-03-11T05:07:26.541Z,62.00
2023-03-11T05:10:07.124Z,62.00
2023-03-11T05:12:50.124Z,62.10
2023-03-11T05:15:26.209Z,62.20
2023-03-11T05:17:56.234Z,62.20
2023-03-11T05:20:26.959Z,62.20
2023-03-11T05:22:57.992Z,62.10
2023-03-11T05:25:31.602Z,62.20
2023-03-11T05:28:01.512Z,62.20
2023-03-11T05:30:35.420Z,62.20
2023-03-11T05:33:07.075Z,62.60
2023-03-11T05:35:47.675Z,62.70
2023-03-11T05:38:25.851Z,62.70
2023-03-11T05:40:54.031Z,62.60
2023-03-11T05:43:24.460Z,62.60
2023-03-11T05:45:55.395Z,63.60
2023-03-11T05:48:28.595Z,64.70
2023-03-11T05:51:03.017Z,65.60
2023-03-11T05:53:39.771Z,66.10
2023-03-11T05:56:18.094Z,66.60
2023-03-11T05:58:47.928Z,66.80
2023-03-11T06:01:43.520Z,66.80
2023-03-11T06:04:22.907Z,67.20
2023-03-11T06:06:53.382Z,67.40
2023-03-11T06:09:38.265Z,67.60
2023-03-11T06:12:17.682Z,67.70
2023-03-11T06:14:58.040Z,67.70
2023-03-11T06:17:28.738Z,67.60
2023-03-11T06:20:04.938Z,67.30
2023-03-11T06:22:43.045Z,67.20
2023-03-11T06:25:16.134Z,67.20
2023-03-11T06:27:51.778Z,67.50
2023-03-11T06:30:23.435Z,67.70
2023-03-11T06:33:15.157Z,68.00
2023-03-11T06:35:59.070Z,68.20
2023-03-11T06:38:39.873Z,68.30
2023-03-11T06:41:23.306Z,68.40
2023-03-11T06:43:56.803Z,68.50
2023-03-11T06:46:27.332Z,68.30
2023-03-11T06:49:06.703Z,68.20
2023-03-11T06:51:43.648Z,68.00
2023-03-11T06:54:35.078Z,67.70
2023-03-11T06:57:10.917Z,67.20
2023-03-11T06:59:49.448Z,67.00
2023-03-11T07:02:22.831Z,66.80
2023-03-11T07:04:50.728Z,66.70
2023-03-11T07:07:30.538Z,66.50
2023-03-11T07:10:04.659Z,66.60
2023-03-11T07:12:42.577Z,66.40
2023-03-11T07:15:25.787Z,66.30
2023-03-11T07:18:09.627Z,66.20
2023-03-11T07:20:42.203Z,65.90
2023-03-11T07:23:15.396Z,65.90
2023-03-11T07:25:55.960Z,65.50
2023-03-11T07:28:48.002Z,65.40
2023-03-11T07:31:28.696Z,64.90
2023-03-11T07:34:06.033Z,64.30
2023-03-11T07:36:57.660Z,63.60
2023-03-11T07:39:32.709Z,63.00
2023-03-11T07:42:09.288Z,62.80
2023-03-11T07:44:52.721Z,62.10
2023-03-11T07:47:33.782Z,61.60
2023-03-11T07:50:01.552Z,61.20
2023-03-11T07:52:33.303Z,60.80
2023-03-11T07:55:07.007Z,60.40
2023-03-11T07:57:45.435Z,60.10
2023-03-11T08:00:14.729Z,60.00
2023-03-11T08:02:50.490Z,59.80
2023-03-11T08:05:28.839Z,59.60
2023-03-11T08:08:07.088Z,59.60
2023-03-11T08:10:45.100Z,59.30
2023-03-11T08:13:21.169Z,59.20
2023-03-11T08:16:01.818Z,59.00
2023-03-11T08:18:42.302Z,59.00
2023-03-11T08:21:22.343Z,58.80
2023-03-11T08:24:06.912Z,58.60
2023-03-11T08:29:44.489Z,58.60
2023-03-11T08:32:28.991Z,58.60
2023-03-11T08:35:02.874Z,58.40
2023-03-11T08:37:37.765Z,58.10
2023-03-11T08:40:29.137Z,57.70
2023-03-11T08:43:18.472Z,57.40
2023-03-11T08:45:54.873Z,57.30
2023-03-11T08:48:42.393Z,57.10
2023-03-11T08:51:20.804Z,57.00
2023-03-11T08:53:52.351Z,56.70
2023-03-11T08:57:00.011Z,56.70
2023-03-11T08:59:48.189Z,57.10
2023-03-11T09:02:37.581Z,57.30
2023-03-11T09:05:21.773Z,57.50
2023-03-11T09:08:20.540Z,57.30
2023-03-11T09:11:04.074Z,56.90
2023-03-11T09:13:45.847Z,56.80
2023-03-11T09:16:20.895Z,56.70
2023-03-11T09:18:52.243Z,56.40
2023-03-11T09:21:36.387Z,56.60
2023-03-11T09:24:05.249Z,56.60
2023-03-11T09:26:39.389Z,56.50
2023-03-11T09:29:12.544Z,56.50
2023-03-11T09:32:04.006Z,56.30
2023-03-11T09:34:35.634Z,56.20
2023-03-11T09:37:19.278Z,56.20
2023-03-11T09:40:23.904Z,56.10
2023-03-11T09:43:28.359Z,55.80
2023-03-11T09:46:25.145Z,55.20
2023-03-11T09:49:14.521Z,55.20
2023-03-11T09:51:46.174Z,54.80
2023-03-11T09:54:13.947Z,54.80
2023-03-11T09:56:44.604Z,54.60
2023-03-11T09:59:22.309Z,54.20
2023-03-11T10:01:50.883Z,53.70
2023-03-11T10:04:26.963Z,53.40
2023-03-11T10:06:54.659Z,52.90
2023-03-11T10:09:41.008Z,52.90
2023-03-11T10:12:46.035Z,52.50
2023-03-11T10:15:39.325Z,52.30
2023-03-11T10:18:26.659Z,51.70
2023-03-11T10:21:16.969Z,51.60
2023-03-11T10:24:15.300Z,52.00
2023-03-11T10:27:20.680Z,51.70
2023-03-11T10:30:14.647Z,51.60
2023-03-11T10:33:22.734Z,51.70
2023-03-11T10:36:04.898Z,51.00
2023-03-11T10:38:42.419Z,50.90
2023-03-11T10:44:55.980Z,50.30
2023-03-11T10:47:25.876Z,50.50
2023-03-11T10:49:52.909Z,50.90
2023-03-11T10:52:20.249Z,51.20
2023-03-11T10:54:59.439Z,51.00
2023-03-11T10:57:35.903Z,51.00
2023-03-11T11:00:17.514Z,51.20
2023-03-11T11:02:58.377Z,51.50
2023-03-11T11:05:38.797Z,51.30
2023-03-11T11:08:27.758Z,51.20
2023-03-11T11:11:10.604Z,50.80
2023-03-11T11:14:16.140Z,50.00
2023-03-11T11:20:17.918Z,49.50
2023-03-11T11:23:13.875Z,49.40
2023-03-11T11:33:00.790Z,49.00
2023-03-11T11:36:01.742Z,48.20
2023-03-11T11:38:37.690Z,48.00
2023-03-11T11:41:20.857Z,47.50
2023-03-11T11:44:22.474Z,46.90
2023-03-11T11:47:41.582Z,46.30
2023-03-11T11:50:39.752Z,46.30
2023-03-11T11:53:54.114Z,45.80
2023-03-11T11:57:00.973Z,45.10
2023-03-11T11:59:33.274Z,45.00
2023-03-11T12:02:49.799Z,45.10
2023-03-11T12:05:39.459Z,44.40
2023-03-11T12:08:32.586Z,44.40
2023-03-11T12:11:26.207Z,44.00
2023-03-11T12:14:36.154Z,43.90
2023-03-11T12:17:20.601Z,43.50
2023-03-11T12:20:19.296Z,43.00
2023-03-11T12:23:41.284Z,42.70
2023-03-11T12:26:23.480Z,42.80
2023-03-11T12:29:48.697Z,43.00
2023-03-11T12:32:46.214Z,42.60
2023-03-11T12:41:55.869Z,43.00
2023-03-11T12:44:49.534Z,42.90
2023-03-11T12:47:41.118Z,42.10
2023-03-11T12:54:00.494Z,42.20
2023-03-11T12:57:06.202Z,43.00
2023-03-11T13:00:23.725Z,42.80
2023-03-11T13:03:34.717Z,42.60
2023-03-11T13:06:46.051Z,42.80
2023-03-11T13:09:19.321Z,43.00
2023-03-11T13:11:55.828Z,43.40
2023-03-11T13:14:42.123Z,43.50
2023-03-11T13:17:51.698Z,43.20
2023-03-11T13:20:46.549Z,43.00
2023-03-11T13:23:28.623Z,42.20
2023-03-11T13:26:10.488Z,39.80
2023-03-11T13:28:58.973Z,38.10
2023-03-11T13:32:16.256Z,35.70
2023-03-11T13:38:35.795Z,36.00
2023-03-11T13:41:09.256Z,36.20
2023-03-11T13:43:46.292Z,36.90
2023-03-11T13:46:37.460Z,36.70
2023-03-11T13:49:34.092Z,36.70
2023-03-11T13:52:08.729Z,36.90
2023-03-11T13:54:49.326Z,37.20
2023-03-11T13:57:39.919Z,36.60
2023-03-11T14:00:24.724Z,36.40
2023-03-11T14:03:24.574Z,35.80
2023-03-11T14:06:04.934Z,35.60
2023-03-11T14:08:48.719Z,35.90
2023-03-11T14:11:19.463Z,36.00
2023-03-11T14:13:51.366Z,35.30
2023-03-11T14:16:41.334Z,35.00
2023-03-11T14:19:31.292Z,35.20
2023-03-11T14:22:10.010Z,35.50
2023-03-11T14:24:40.264Z,35.80
2023-03-11T14:27:14.642Z,36.00
2023-03-11T14:29:49.926Z,35.90
2023-03-11T14:32:30.455Z,35.90
2023-03-11T14:35:00.734Z,35.70
2023-03-11T14:37:35.589Z,36.00
2023-03-11T14:40:05.417Z,35.60
2023-03-11T14:42:44.893Z,36.00
2023-03-11T14:45:25.558Z,35.90
2023-03-11T14:48:26.000Z,36.00
2023-03-11T14:51:00.573Z,35.60
2023-03-11T14:54:09.092Z,36.40
2023-03-11T14:57:29.859Z,36.80
2023-03-11T15:00:27.971Z,37.00
2023-03-11T15:03:47.241Z,37.60
2023-03-11T15:09:54.661Z,38.40
2023-03-11T15:13:34.718Z,38.70
2023-03-11T15:16:22.203Z,38.60
2023-03-11T15:18:52.624Z,38.90
2023-03-11T15:21:30.575Z,39.20
2023-03-11T15:25:07.958Z,39.70
2023-03-11T15:28:00.414Z,40.10
2023-03-11T15:31:40.265Z,40.40
2023-03-11T15:34:19.163Z,40.50
2023-03-11T15:36:56.346Z,40.80
2023-03-11T15:39:39.606Z,41.10
2023-03-11T15:42:39.302Z,41.40
2023-03-11T15:45:32.585Z,41.60
2023-03-11T15:50:58.696Z,41.70
2023-03-11T15:53:27.766Z,41.80
2023-03-11T15:56:06.617Z,41.90
2023-03-11T15:58:34.389Z,42.00
2023-03-11T16:01:02.365Z,42.10
2023-03-11T16:03:31.372Z,42.20
2023-03-11T16:05:58.406Z,42.50
2023-03-11T16:08:25.543Z,42.50
2023-03-11T16:10:52.445Z,42.50
2023-03-11T16:13:19.236Z,42.60
2023-03-11T16:15:47.134Z,42.50
2023-03-11T16:18:14.126Z,42.70
2023-03-11T16:20:51.157Z,42.90
2023-03-11T16:23:24.507Z,43.00
2023-03-11T16:25:57.461Z,43.10
2023-03-11T16:28:24.165Z,43.20
2023-03-11T16:30:51.430Z,43.60
2023-03-11T16:33:18.533Z,43.90
2023-03-11T16:35:46.474Z,44.10
2023-03-11T16:38:13.294Z,44.10
2023-03-11T16:40:40.444Z,44.10
2023-03-11T16:43:10.219Z,44.00
2023-03-11T16:45:37.324Z,44.10
2023-03-11T16:48:05.575Z,44.40
2023-03-11T16:50:34.255Z,44.30
2023-03-11T16:53:01.912Z,44.50
2023-03-11T16:55:28.987Z,44.50
2023-03-11T16:57:57.538Z,44.40
2023-03-11T17:00:25.512Z,44.30
2023-03-11T17:02:53.708Z,44.40
2023-03-11T17:05:20.876Z,44.40
2023-03-11T17:07:47.994Z,44.40
2023-03-11T17:10:14.801Z,44.30
2023-03-11T17:12:41.655Z,44.30
2023-03-11T17:15:08.798Z,44.40
2023-03-11T17:17:36.428Z,44.50
2023-03-11T17:20:06.188Z,45.30
2023-03-11T17:22:32.995Z,44.80
2023-03-11T17:24:59.989Z,44.90
2023-03-11T17:27:32.068Z,45.00
2023-03-11T17:30:00.300Z,45.10
2023-03-11T17:32:27.378Z,45.10
2023-03-11T17:34:54.248Z,45.20
2023-03-11T17:37:21.337Z,45.10
2023-03-11T17:39:48.596Z,45.40
2023-03-11T17:42:15.557Z,45.70
2023-03-11T17:44:51.515Z,46.10
2023-03-11T17:47:19.864Z,46.60
2023-03-11T17:49:47.733Z,46.80
2023-03-11T17:52:14.561Z,47.00
2023-03-11T17:54:41.341Z,47.40
2023-03-11T17:57:08.324Z,47.70
2023-03-11T17:59:35.183Z,47.80
2023-03-11T18:02:02.226Z,48.00
2023-03-11T18:04:29.182Z,48.30
2023-03-11T18:06:56.241Z,48.40
2023-03-11T18:09:23.065Z,48.60
2023-03-11T18:11:50.044Z,48.80
2023-03-11T18:14:17.111Z,49.00
2023-03-11T18:16:43.908Z,49.30
2023-03-11T18:19:10.852Z,49.40
2023-03-11T18:21:37.675Z,49.70
2023-03-11T18:24:04.776Z,50.30
2023-03-11T18:26:31.937Z,50.80
2023-03-11T18:29:00.028Z,51.00
2023-03-11T18:31:28.530Z,51.10
2023-03-11T18:34:02.249Z,51.30
2023-03-11T18:36:30.383Z,51.40
2023-03-11T18:38:58.910Z,51.30
2023-03-11T18:41:27.428Z,51.50
2023-03-11T18:43:57.419Z,51.60
2023-03-11T18:46:25.837Z,51.70
2023-03-11T18:48:57.695Z,51.70
2023-03-11T18:51:26.093Z,51.70
2023-03-11T18:53:53.107Z,52.00
2023-03-11T18:56:20.404Z,52.20
2023-03-11T18:58:47.725Z,52.60
2023-03-11T19:01:17.400Z,52.80
2023-03-11T19:03:48.493Z,52.90
2023-03-11T19:06:16.635Z,53.20
2023-03-11T19:08:43.800Z,53.40
2023-03-11T19:11:16.130Z,53.50
2023-03-11T19:13:47.704Z,53.60
2023-03-11T19:16:17.684Z,53.80
2023-03-11T19:18:45.057Z,54.00
2023-03-11T19:21:14.673Z,54.10
2023-03-11T19:23:41.588Z,54.30
2023-03-11T19:26:08.966Z,54.40
2023-03-11T19:28:36.115Z,54.40
2023-03-11T19:31:04.533Z,54.40
2023-03-11T19:33:31.542Z,54.50
2023-03-11T19:36:04.187Z,54.60
2023-03-11T19:38:31.455Z,54.70
2023-03-11T19:41:08.516Z,54.90
2023-03-11T19:43:40.209Z,55.10
2023-03-11T19:46:09.022Z,55.40
2023-03-11T19:48:36.143Z,55.60
2023-03-11T19:51:03.568Z,55.90
2023-03-11T19:53:30.595Z,56.00
2023-03-11T19:55:58.044Z,56.30
2023-03-11T19:58:29.950Z,56.30
2023-03-11T20:00:58.562Z,56.20
2023-03-11T20:03:26.115Z,56.10
2023-03-11T20:05:55.861Z,56.00
2023-03-11T20:08:23.842Z,56.00
2023-03-11T20:10:52.802Z,56.00
2023-03-11T20:13:23.133Z,55.90
2023-03-11T20:15:50.768Z,56.00
2023-03-11T20:18:18.213Z,56.00
2023-03-11T20:20:45.677Z,56.00
2023-03-11T20:23:13.474Z,56.00
2023-03-11T20:25:42.046Z,56.00
2023-03-11T20:28:09.758Z,56.00
2023-03-11T20:30:38.854Z,56.10
2023-03-11T20:33:06.734Z,56.00
2023-03-11T20:35:34.174Z,55.90
2023-03-11T20:38:02.852Z,55.80
2023-03-11T20:40:30.243Z,56.10
2023-03-11T20:42:57.389Z,56.20
2023-03-11T20:45:24.460Z,56.30
2023-03-11T20:47:54.029Z,56.50
2023-03-11T20:50:22.193Z,56.60
2023-03-11T20:52:50.147Z,56.70
2023-03-11T20:55:17.541Z,56.80
2023-03-11T20:57:44.768Z,56.80
2023-03-11T21:00:13.362Z,57.00
2023-03-11T21:02:42.622Z,57.00
2023-03-11T21:05:11.040Z,56.90
2023-03-11T21:07:38.008Z,56.80
2023-03-11T21:10:08.059Z,57.00
2023-03-11T21:12:35.080Z,57.10
2023-03-11T21:15:02.594Z,57.10
2023-03-11T21:17:31.062Z,57.20
2023-03-11T21:19:58.108Z,57.20
2023-03-11T21:22:25.308Z,57.20
2023-03-11T21:24:53.706Z,57.40
2023-03-11T21:27:26.387Z,57.40
2023-03-11T21:29:57.919Z,57.50
2023-03-11T21:32:26.273Z,57.50
2023-03-11T21:34:59.210Z,57.50
2023-03-11T21:37:27.046Z,57.50
2023-03-11T21:39:54.342Z,57.70
2023-03-11T21:42:21.912Z,57.70
2023-03-11T21:44:49.115Z,57.90
2023-03-11T21:47:16.354Z,58.00
2023-03-11T21:49:43.427Z,58.00
2023-03-11T21:52:10.485Z,58.30
2023-03-11T21:54:37.520Z,58.30
2023-03-11T21:57:05.086Z,58.50
2023-03-11T21:59:32.348Z,58.60
2023-03-11T22:02:03.054Z,58.70
2023-03-11T22:04:31.830Z,58.80
2023-03-11T22:06:59.044Z,58.90
2023-03-11T22:09:26.450Z,59.00
2023-03-11T22:11:54.273Z,59.10
2023-03-11T22:14:22.689Z,59.40
2023-03-11T22:16:50.315Z,59.50
2023-03-11T22:19:17.968Z,59.40
2023-03-11T22:21:54.431Z,59.40
2023-03-11T22:24:21.359Z,59.40
2023-03-11T22:26:48.844Z,59.60
2023-03-11T22:29:15.891Z,59.60
2023-03-11T22:31:43.260Z,59.70
2023-03-11T22:34:10.550Z,60.00
2023-03-11T22:36:37.649Z,60.20
2023-03-11T22:39:05.102Z,60.30
2023-03-11T22:41:32.627Z,60.10
2023-03-11T22:43:59.746Z,60.30
2023-03-11T22:46:26.884Z,60.30
2023-03-11T22:48:53.931Z,60.30
2023-03-11T22:51:21.095Z,60.30
2023-03-11T22:53:48.124Z,60.30
2023-03-11T22:56:17.143Z,60.40
2023-03-11T22:58:44.645Z,60.30
2023-03-11T23:01:12.262Z,60.30
2023-03-11T23:03:39.432Z,60.30
2023-03-11T23:06:09.385Z,60.30
2023-03-11T23:08:37.022Z,60.40
2023-03-11T23:11:10.260Z,60.40
2023-03-11T23:13:38.510Z,60.50
2023-03-11T23:16:17.715Z,60.50
2023-03-11T23:18:46.730Z,60.70
2023-03-11T23:21:26.242Z,60.80
2023-03-11T23:23:54.074Z,60.80
2023-03-11T23:26:22.192Z,60.80
2023-03-11T23:28:51.353Z,60.70
2023-03-11T23:31:20.471Z,60.80
2023-03-11T23:33:47.794Z,61.00
2023-03-11T23:36:17.791Z,61.10
2023-03-11T23:38:45.581Z,61.30
2023-03-11T23:41:18.281Z,61.60
2023-03-11T23:43:45.582Z,61.60
2023-03-11T23:46:13.350Z,61.90
2023-03-11T23:48:41.063Z,61.90
2023-03-11T23:51:09.405Z,62.10
2023-03-11T23:53:37.496Z,62.20
2023-03-11T23:56:14.348Z,62.20
2023-03-11T23:58:41.503Z,62.20
